sensor_id;sensor_type;location;lat;lon;timestamp;pressure;altitude;pressure_sealevel;temperature;humidity
74329;BME280;62749;51.982;5.916;2022-10-31T00:00:46;101939.56;;;14.17;83.79
74329;BME280;62749;51.982;5.916;2022-10-31T00:03:18;101939.63;;;14.16;83.59
74329;BME280;62749;51.982;5.916;2022-10-31T00:05:49;101935.38;;;14.11;83.62
74329;BME280;62749;51.982;5.916;2022-10-31T00:08:23;101939.50;;;14.19;83.74
74329;BME280;62749;51.982;5.916;2022-10-31T00:10:53;101943.19;;;14.15;83.76
74329;BME280;62749;51.982;5.916;2022-10-31T00:13:22;101939.91;;;14.08;83.72
74329;BME280;62749;51.982;5.916;2022-10-31T00:15:51;101939.88;;;14.09;83.97
74329;BME280;62749;51.982;5.916;2022-10-31T00:18:23;101941.63;;;14.09;84.02
74329;BME280;62749;51.982;5.916;2022-10-31T00:20:58;101937.22;;;14.09;83.37
74329;BME280;62749;51.982;5.916;2022-10-31T00:23:28;101935.41;;;14.10;83.54
74329;BME280;62749;51.982;5.916;2022-10-31T00:26:00;101941.72;;;14.07;83.23
74329;BME280;62749;51.982;5.916;2022-10-31T00:28:31;101937.38;;;14.05;83.52
74329;BME280;62749;51.982;5.916;2022-10-31T00:31:00;101939.22;;;14.03;83.51
74329;BME280;62749;51.982;5.916;2022-10-31T00:33:34;101941.88;;;14.03;83.66
74329;BME280;62749;51.982;5.916;2022-10-31T00:36:05;101934.84;;;14.02;83.42
74329;BME280;62749;51.982;5.916;2022-10-31T00:38:35;101942.81;;;14.02;83.35
74329;BME280;62749;51.982;5.916;2022-10-31T00:41:04;101933.19;;;13.99;83.26
74329;BME280;62749;51.982;5.916;2022-10-31T00:43:33;101933.41;;;13.93;83.25
74329;BME280;62749;51.982;5.916;2022-10-31T00:46:03;101937.91;;;13.91;83.49
74329;BME280;62749;51.982;5.916;2022-10-31T00:48:35;101941.47;;;13.90;83.60
74329;BME280;62749;51.982;5.916;2022-10-31T00:51:05;101946.13;;;13.85;83.17
74329;BME280;62749;51.982;5.916;2022-10-31T00:53:35;101943.50;;;13.83;83.54
74329;BME280;62749;51.982;5.916;2022-10-31T00:56:06;101944.59;;;13.77;83.70
74329;BME280;62749;51.982;5.916;2022-10-31T00:58:35;101942.84;;;13.76;83.94
74329;BME280;62749;51.982;5.916;2022-10-31T01:01:07;101950.91;;;13.75;83.92
74329;BME280;62749;51.982;5.916;2022-10-31T01:03:39;101955.34;;;13.74;84.21
74329;BME280;62749;51.982;5.916;2022-10-31T01:06:11;101951.00;;;13.72;83.96
74329;BME280;62749;51.982;5.916;2022-10-31T01:08:41;101948.31;;;13.73;84.18
74329;BME280;62749;51.982;5.916;2022-10-31T01:11:12;101944.88;;;13.70;84.13
74329;BME280;62749;51.982;5.916;2022-10-31T01:13:43;101944.88;;;13.70;84.16
74329;BME280;62749;51.982;5.916;2022-10-31T01:16:14;101941.28;;;13.71;83.64
74329;BME280;62749;51.982;5.916;2022-10-31T01:18:47;101937.69;;;13.73;83.96
74329;BME280;62749;51.982;5.916;2022-10-31T01:21:18;101946.44;;;13.75;83.81
74329;BME280;62749;51.982;5.916;2022-10-31T01:23:48;101942.94;;;13.75;83.78
74329;BME280;62749;51.982;5.916;2022-10-31T01:26:20;101941.25;;;13.72;83.74
74329;BME280;62749;51.982;5.916;2022-10-31T01:29:06;101948.41;;;13.70;83.73
74329;BME280;62749;51.982;5.916;2022-10-31T01:31:38;101942.28;;;13.68;84.11
74329;BME280;62749;51.982;5.916;2022-10-31T01:34:13;101946.94;;;13.61;84.11
74329;BME280;62749;51.982;5.916;2022-10-31T01:36:44;101941.66;;;13.61;84.22
74329;BME280;62749;51.982;5.916;2022-10-31T01:39:18;101941.72;;;13.60;83.92
74329;BME280;62749;51.982;5.916;2022-10-31T01:41:49;101936.44;;;13.58;84.11
74329;BME280;62749;51.982;5.916;2022-10-31T01:47:26;101925.25;;;13.50;84.32
74329;BME280;62749;51.982;5.916;2022-10-31T01:50:04;101923.56;;;13.47;84.23
74329;BME280;62749;51.982;5.916;2022-10-31T01:52:40;101918.38;;;13.44;84.20
74329;BME280;62749;51.982;5.916;2022-10-31T01:55:14;101920.28;;;13.41;84.16
74329;BME280;62749;51.982;5.916;2022-10-31T01:57:48;101920.28;;;13.41;83.89
74329;BME280;62749;51.982;5.916;2022-10-31T02:00:30;101917.63;;;13.39;84.23
74329;BME280;62749;51.982;5.916;2022-10-31T02:03:00;101930.06;;;13.37;84.28
74329;BME280;62749;51.982;5.916;2022-10-31T02:05:32;101930.06;;;13.37;84.34
74329;BME280;62749;51.982;5.916;2022-10-31T02:08:07;101942.44;;;13.38;84.17
74329;BME280;62749;51.982;5.916;2022-10-31T02:10:42;101932.81;;;13.35;84.02
74329;BME280;62749;51.982;5.916;2022-10-31T02:13:13;101935.56;;;13.32;83.99
74329;BME280;62749;51.982;5.916;2022-10-31T02:15:47;101934.75;;;13.30;84.06
74329;BME280;62749;51.982;5.916;2022-10-31T02:18:30;101930.59;;;13.23;84.08
74329;BME280;62749;51.982;5.916;2022-10-31T02:21:11;101931.66;;;13.17;84.10
74329;BME280;62749;51.982;5.916;2022-10-31T02:24:05;101937.06;;;13.14;83.92
74329;BME280;62749;51.982;5.916;2022-10-31T02:27:01;101944.19;;;13.14;84.11
74329;BME280;62749;51.982;5.916;2022-10-31T02:30:00;101940.72;;;13.12;83.87
74329;BME280;62749;51.982;5.916;2022-10-31T02:32:54;101936.38;;;13.09;84.12
74329;BME280;62749;51.982;5.916;2022-10-31T02:35:49;101938.22;;;13.07;84.06
74329;BME280;62749;51.982;5.916;2022-10-31T02:38:38;101935.72;;;13.02;84.29
74329;BME280;62749;51.982;5.916;2022-10-31T02:41:18;101935.81;;;12.99;83.99
74329;BME280;62749;51.982;5.916;2022-10-31T02:44:03;101943.06;;;12.94;84.13
74329;BME280;62749;51.982;5.916;2022-10-31T02:46:44;101936.13;;;12.90;84.10
74329;BME280;62749;51.982;5.916;2022-10-31T02:49:24;101930.03;;;12.88;84.41
74329;BME280;62749;51.982;5.916;2022-10-31T02:51:55;101938.00;;;12.86;84.33
74329;BME280;62749;51.982;5.916;2022-10-31T02:54:27;101932.81;;;12.83;84.24
74329;BME280;62749;51.982;5.916;2022-10-31T02:57:02;101939.13;;;12.79;84.28
74329;BME280;62749;51.982;5.916;2022-10-31T02:59:36;101934.00;;;12.74;84.02
74329;BME280;62749;51.982;5.916;2022-10-31T03:02:28;101929.59;;;12.73;84.21
74329;BME280;62749;51.982;5.916;2022-10-31T03:05:31;101924.41;;;12.70;83.91
74329;BME280;62749;51.982;5.916;2022-10-31T03:08:12;101931.50;;;12.70;84.08
74329;BME280;62749;51.982;5.916;2022-10-31T03:10:52;101932.41;;;12.69;84.35
74329;BME280;62749;51.982;5.916;2022-10-31T03:13:32;101934.34;;;12.64;84.31
74329;BME280;62749;51.982;5.916;2022-10-31T03:16:09;101923.06;;;12.57;84.30
74329;BME280;62749;51.982;5.916;2022-10-31T03:18:46;101926.63;;;12.56;84.22
74329;BME280;62749;51.982;5.916;2022-10-31T03:21:26;101931.91;;;12.57;84.33
74329;BME280;62749;51.982;5.916;2022-10-31T03:23:58;101929.25;;;12.57;84.16
74329;BME280;62749;51.982;5.916;2022-10-31T03:26:47;101929.25;;;12.57;84.20
74329;BME280;62749;51.982;5.916;2022-10-31T03:29:24;101932.84;;;12.55;84.02
74329;BME280;62749;51.982;5.916;2022-10-31T03:31:58;101935.72;;;12.47;83.93
74329;BME280;62749;51.982;5.916;2022-10-31T03:34:30;101926.16;;;12.43;84.21
74329;BME280;62749;51.982;5.916;2022-10-31T03:37:07;101926.19;;;12.41;84.28
74329;BME280;62749;51.982;5.916;2022-10-31T03:39:42;101934.22;;;12.40;84.29
74329;BME280;62749;51.982;5.916;2022-10-31T03:42:16;101941.28;;;12.39;84.05
74329;BME280;62749;51.982;5.916;2022-10-31T03:44:53;101934.28;;;12.37;84.34
74329;BME280;62749;51.982;5.916;2022-10-31T03:47:23;101933.47;;;12.35;84.39
74329;BME280;62749;51.982;5.916;2022-10-31T03:49:54;101937.91;;;12.34;84.23
74329;BME280;62749;51.982;5.916;2022-10-31T03:52:32;101936.19;;;12.33;84.12
74329;BME280;62749;51.982;5.916;2022-10-31T03:55:09;101935.34;;;12.31;83.99
74329;BME280;62749;51.982;5.916;2022-10-31T03:57:43;101942.53;;;12.27;84.45
74329;BME280;62749;51.982;5.916;2022-10-31T04:00:16;101926.03;;;12.19;84.28
74329;BME280;62749;51.982;5.916;2022-10-31T04:02:53;101947.22;;;12.19;84.22
74329;BME280;62749;51.982;5.916;2022-10-31T04:05:24;101938.53;;;12.14;84.20
74329;BME280;62749;51.982;5.916;2022-10-31T04:07:58;101942.00;;;12.16;84.41
74329;BME280;62749;51.982;5.916;2022-10-31T04:10:31;101935.94;;;12.12;84.36
74329;BME280;62749;51.982;5.916;2022-10-31T04:13:06;101940.28;;;12.13;84.48
74329;BME280;62749;51.982;5.916;2022-10-31T04:15:41;101942.03;;;12.15;84.65
74329;BME280;62749;51.982;5.916;2022-10-31T04:18:12;101933.28;;;12.12;84.26
74329;BME280;62749;51.982;5.916;2022-10-31T04:20:42;101936.84;;;12.11;84.11
74329;BME280;62749;51.982;5.916;2022-10-31T04:23:19;101931.63;;;12.08;84.35
74329;BME280;62749;51.982;5.916;2022-10-31T04:25:49;101936.06;;;12.08;84.18
74329;BME280;62749;51.982;5.916;2022-10-31T04:28:18;101930.88;;;12.05;84.28
74329;BME280;62749;51.982;5.916;2022-10-31T04:30:48;101925.56;;;12.05;84.38
74329;BME280;62749;51.982;5.916;2022-10-31T04:33:18;101917.72;;;12.02;84.48
74329;BME280;62749;51.982;5.916;2022-10-31T04:35:47;101922.00;;;12.06;84.33
74329;BME280;62749;51.982;5.916;2022-10-31T04:38:19;101927.41;;;12.03;84.17
74329;BME280;62749;51.982;5.916;2022-10-31T04:40:48;101929.28;;;11.97;84.40
74329;BME280;62749;51.982;5.916;2022-10-31T04:46:18;101922.28;;;11.95;84.35
74329;BME280;62749;51.982;5.916;2022-10-31T04:48:47;101921.47;;;11.93;84.21
74329;BME280;62749;51.982;5.916;2022-10-31T04:51:16;101926.69;;;11.94;84.25
74329;BME280;62749;51.982;5.916;2022-10-31T04:53:48;101926.81;;;11.91;84.40
74329;BME280;62749;51.982;5.916;2022-10-31T04:56:18;101926.81;;;11.91;84.35
74329;BME280;62749;51.982;5.916;2022-10-31T04:58:47;101925.09;;;11.89;84.38
74329;BME280;62749;51.982;5.916;2022-10-31T05:01:16;101937.50;;;11.88;84.15
74329;BME280;62749;51.982;5.916;2022-10-31T05:03:46;101922.56;;;11.86;84.39
74329;BME280;62749;51.982;5.916;2022-10-31T05:06:15;101923.47;;;11.85;84.41
74329;BME280;62749;51.982;5.916;2022-10-31T05:08:48;101915.63;;;11.81;84.22
74329;BME280;62749;51.982;5.916;2022-10-31T05:11:17;101929.69;;;11.84;84.00
74329;BME280;62749;51.982;5.916;2022-10-31T05:13:46;101919.13;;;11.82;84.29
74329;BME280;62749;51.982;5.916;2022-10-31T05:16:16;101923.66;;;11.78;84.41
74329;BME280;62749;51.982;5.916;2022-10-31T05:18:45;101925.44;;;11.78;84.22
74329;BME280;62749;51.982;5.916;2022-10-31T05:21:14;101924.47;;;11.80;84.43
74329;BME280;62749;51.982;5.916;2022-10-31T05:23:44;101913.03;;;11.80;84.57
74329;BME280;62749;51.982;5.916;2022-10-31T05:26:15;101909.34;;;11.84;84.67
74329;BME280;62749;51.982;5.916;2022-10-31T05:28:45;101905.72;;;11.88;84.50
74329;BME280;62749;51.982;5.916;2022-10-31T05:31:14;101908.44;;;11.85;84.59
74329;BME280;62749;51.982;5.916;2022-10-31T05:33:43;101897.09;;;11.81;84.37
74329;BME280;62749;51.982;5.916;2022-10-31T05:36:13;101896.03;;;11.87;84.84
74329;BME280;62749;51.982;5.916;2022-10-31T05:38:43;101894.13;;;11.92;84.57
74329;BME280;62749;51.982;5.916;2022-10-31T05:41:15;101899.50;;;11.89;84.27
74329;BME280;62749;51.982;5.916;2022-10-31T05:43:45;101900.38;;;11.90;84.63
74329;BME280;62749;51.982;5.916;2022-10-31T05:46:14;101900.34;;;11.91;84.43
74329;BME280;62749;51.982;5.916;2022-10-31T05:48:43;101901.09;;;11.95;84.97
74329;BME280;62749;51.982;5.916;2022-10-31T05:51:13;101902.78;;;11.97;84.82
74329;BME280;62749;51.982;5.916;2022-10-31T05:53:42;101895.75;;;11.96;84.77
74329;BME280;62749;51.982;5.916;2022-10-31T05:56:11;101899.28;;;11.97;84.90
74329;BME280;62749;51.982;5.916;2022-10-31T05:58:43;101904.47;;;12.02;85.01
74329;BME280;62749;51.982;5.916;2022-10-31T06:01:13;101901.75;;;12.03;84.74
74329;BME280;62749;51.982;5.916;2022-10-31T06:03:42;101903.50;;;12.04;84.77
74329;BME280;62749;51.982;5.916;2022-10-31T06:06:11;101903.41;;;12.07;84.79
74329;BME280;62749;51.982;5.916;2022-10-31T06:08:41;101897.34;;;12.04;84.79
74329;BME280;62749;51.982;5.916;2022-10-31T06:11:10;101896.53;;;12.02;84.70
74329;BME280;62749;51.982;5.916;2022-10-31T06:13:42;101902.78;;;11.99;84.89
74329;BME280;62749;51.982;5.916;2022-10-31T06:16:13;101897.50;;;11.97;84.90
74329;BME280;62749;51.982;5.916;2022-10-31T06:18:42;101893.09;;;11.96;84.86
74329;BME280;62749;51.982;5.916;2022-10-31T06:21:11;101901.16;;;11.93;85.31
74329;BME280;62749;51.982;5.916;2022-10-31T06:23:41;101904.75;;;11.91;84.81
74329;BME280;62749;51.982;5.916;2022-10-31T06:26:10;101897.84;;;11.87;85.12
74329;BME280;62749;51.982;5.916;2022-10-31T06:29:12;101906.63;;;11.87;84.97
74329;BME280;62749;51.982;5.916;2022-10-31T06:31:41;101904.91;;;11.86;85.38
74329;BME280;62749;51.982;5.916;2022-10-31T06:34:11;101903.13;;;11.87;85.20
74329;BME280;62749;51.982;5.916;2022-10-31T06:36:40;101904.06;;;11.84;85.13
74329;BME280;62749;51.982;5.916;2022-10-31T06:39:09;101903.94;;;11.89;85.49
74329;BME280;62749;51.982;5.916;2022-10-31T06:41:39;101905.72;;;11.88;85.29
74329;BME280;62749;51.982;5.916;2022-10-31T06:44:08;101909.34;;;11.86;85.08
74329;BME280;62749;51.982;5.916;2022-10-31T06:46:40;101912.91;;;11.85;85.34
74329;BME280;62749;51.982;5.916;2022-10-31T06:49:09;101908.44;;;11.85;85.34
74329;BME280;62749;51.982;5.916;2022-10-31T06:51:39;101902.19;;;11.88;85.21
74329;BME280;62749;51.982;5.916;2022-10-31T06:54:16;101909.19;;;11.90;85.33
74329;BME280;62749;51.982;5.916;2022-10-31T06:56:46;101911.75;;;11.93;85.54
74329;BME280;62749;51.982;5.916;2022-10-31T06:59:16;101910.81;;;11.94;85.52
74329;BME280;62749;51.982;5.916;2022-10-31T07:01:48;101912.56;;;11.95;85.71
74329;BME280;62749;51.982;5.916;2022-10-31T07:04:17;101905.44;;;11.97;85.38
74329;BME280;62749;51.982;5.916;2022-10-31T07:06:47;101903.66;;;12.00;85.54
74329;BME280;62749;51.982;5.916;2022-10-31T07:09:16;101908.94;;;12.00;85.49
74329;BME280;62749;51.982;5.916;2022-10-31T07:11:45;101918.53;;;12.04;85.54
74329;BME280;62749;51.982;5.916;2022-10-31T07:14:15;101912.28;;;12.06;85.36
74329;BME280;62749;51.982;5.916;2022-10-31T07:16:50;101911.31;;;12.09;85.59
74329;BME280;62749;51.982;5.916;2022-10-31T07:19:20;101915.66;;;12.11;85.53
74329;BME280;62749;51.982;5.916;2022-10-31T07:21:49;101910.31;;;12.13;85.33
74329;BME280;62749;51.982;5.916;2022-10-31T07:24:18;101914.59;;;12.17;85.53
74329;BME280;62749;51.982;5.916;2022-10-31T07:26:48;101902.19;;;12.19;85.72
74329;BME280;62749;51.982;5.916;2022-10-31T07:29:44;101909.88;;;12.27;85.97
74329;BME280;62749;51.982;5.916;2022-10-31T07:32:16;101906.19;;;12.33;85.75
74329;BME280;62749;51.982;5.916;2022-10-31T07:34:45;101911.50;;;12.31;86.05
74329;BME280;62749;51.982;5.916;2022-10-31T07:37:15;101908.94;;;12.28;86.17
74329;BME280;62749;51.982;5.916;2022-10-31T07:39:44;101909.09;;;12.23;86.48
74329;BME280;62749;51.982;5.916;2022-10-31T07:42:13;101907.28;;;12.25;86.50
74329;BME280;62749;51.982;5.916;2022-10-31T07:44:43;101895.63;;;12.31;86.08
74329;BME280;62749;51.982;5.916;2022-10-31T07:47:12;101906.41;;;12.25;86.35
74329;BME280;62749;51.982;5.916;2022-10-31T07:49:44;101907.47;;;12.19;86.78
74329;BME280;62749;51.982;5.916;2022-10-31T07:52:13;101906.41;;;12.25;87.04
74329;BME280;62749;51.982;5.916;2022-10-31T07:54:43;101917.69;;;12.32;86.59
74329;BME280;62749;51.982;5.916;2022-10-31T07:57:12;101911.34;;;12.36;86.77
74329;BME280;62749;51.982;5.916;2022-10-31T07:59:53;101922.78;;;12.38;86.49
74329;BME280;62749;51.982;5.916;2022-10-31T08:02:24;101917.47;;;12.38;86.74
74329;BME280;62749;51.982;5.916;2022-10-31T08:04:56;101911.28;;;12.39;86.67
74329;BME280;62749;51.982;5.916;2022-10-31T08:07:26;101918.16;;;12.45;86.37
74329;BME280;62749;51.982;5.916;2022-10-31T08:09:56;101921.72;;;12.43;86.39
74329;BME280;62749;51.982;5.916;2022-10-31T08:12:25;101918.91;;;12.48;86.34
74329;BME280;62749;51.982;5.916;2022-10-31T08:14:55;101924.19;;;12.50;86.18
74329;BME280;62749;51.982;5.916;2022-10-31T08:17:24;101933.88;;;12.51;86.49
74329;BME280;62749;51.982;5.916;2022-10-31T08:19:56;101937.59;;;12.45;86.62
74329;BME280;62749;51.982;5.916;2022-10-31T08:22:26;101937.53;;;12.47;86.97
74329;BME280;62749;51.982;5.916;2022-10-31T08:24:55;101934.81;;;12.48;86.89
74329;BME280;62749;51.982;5.916;2022-10-31T08:27:24;101936.28;;;12.58;86.85
74329;BME280;62749;51.982;5.916;2022-10-31T08:29:54;101930.78;;;12.65;86.56
74329;BME280;62749;51.982;5.916;2022-10-31T08:32:23;101927.03;;;12.70;86.57
74329;BME280;62749;51.982;5.916;2022-10-31T08:34:55;101920.34;;;12.85;86.48
74329;BME280;62749;51.982;5.916;2022-10-31T08:37:32;101922.72;;;12.95;86.02
74329;BME280;62749;51.982;5.916;2022-10-31T08:40:01;101922.50;;;13.01;85.74
74329;BME280;62749;51.982;5.916;2022-10-31T08:42:30;101916.06;;;13.08;85.78
74329;BME280;62749;51.982;5.916;2022-10-31T08:45:00;101912.22;;;13.17;85.50
74329;BME280;62749;51.982;5.916;2022-10-31T08:47:29;101914.59;;;13.25;85.46
74329;BME280;62749;51.982;5.916;2022-10-31T08:50:01;101908.00;;;13.37;84.57
74329;BME280;62749;51.982;5.916;2022-10-31T08:52:30;101905.84;;;13.48;84.93
74329;BME280;62749;51.982;5.916;2022-10-31T08:55:00;101907.22;;;13.58;84.14
74329;BME280;62749;51.982;5.916;2022-10-31T08:57:29;101902.47;;;13.68;83.82
74329;BME280;62749;51.982;5.916;2022-10-31T09:02:45;101905.28;;;13.87;82.72
74329;BME280;62749;51.982;5.916;2022-10-31T09:05:17;101901.22;;;14.01;83.06
74329;BME280;62749;51.982;5.916;2022-10-31T09:07:47;101902.41;;;14.16;82.60
74329;BME280;62749;51.982;5.916;2022-10-31T09:10:16;101895.13;;;14.21;82.08
74329;BME280;62749;51.982;5.916;2022-10-31T09:12:46;101898.50;;;14.26;81.69
74329;BME280;62749;51.982;5.916;2022-10-31T09:15:15;101895.56;;;14.32;81.74
74329;BME280;62749;51.982;5.916;2022-10-31T09:17:46;101887.22;;;14.41;81.42
74329;BME280;62749;51.982;5.916;2022-10-31T09:20:18;101892.03;;;14.54;81.32
74329;BME280;62749;51.982;5.916;2022-10-31T09:22:55;101891.78;;;14.60;80.80
74329;BME280;62749;51.982;5.916;2022-10-31T09:25:26;101903.06;;;14.65;80.68
74329;BME280;62749;51.982;5.916;2022-10-31T09:27:56;101897.47;;;14.73;80.07
74329;BME280;62749;51.982;5.916;2022-10-31T09:30:28;101897.34;;;14.76;79.81
74329;BME280;62749;51.982;5.916;2022-10-31T09:33:00;101890.78;;;14.85;80.53
74329;BME280;62749;51.982;5.916;2022-10-31T09:35:33;101885.47;;;14.85;80.34
74329;BME280;62749;51.982;5.916;2022-10-31T09:38:04;101865.84;;;14.87;80.44
74329;BME280;62749;51.982;5.916;2022-10-31T09:40:36;101842.28;;;14.99;80.16
74329;BME280;62749;51.982;5.916;2022-10-31T09:43:16;101836.03;;;15.00;80.01
74329;BME280;62749;51.982;5.916;2022-10-31T09:46:01;101848.41;;;15.01;80.06
74329;BME280;62749;51.982;5.916;2022-10-31T09:48:45;101863.91;;;15.12;79.47
74329;BME280;62749;51.982;5.916;2022-10-31T09:51:25;101862.06;;;15.14;79.62
74329;BME280;62749;51.982;5.916;2022-10-31T09:54:18;101869.16;;;15.13;79.54
74329;BME280;62749;51.982;5.916;2022-10-31T09:56:48;101860.25;;;15.14;79.81
74329;BME280;62749;51.982;5.916;2022-10-31T09:59:25;101855.78;;;15.15;79.91
74329;BME280;62749;51.982;5.916;2022-10-31T10:02:01;101861.88;;;15.17;79.95
74329;BME280;62749;51.982;5.916;2022-10-31T10:04:38;101869.75;;;15.20;79.82
74329;BME280;62749;51.982;5.916;2022-10-31T10:07:22;101865.09;;;15.25;80.06
74329;BME280;62749;51.982;5.916;2022-10-31T10:09:55;101853.50;;;15.26;79.57
74329;BME280;62749;51.982;5.916;2022-10-31T10:12:37;101857.81;;;15.29;79.46
74329;BME280;62749;51.982;5.916;2022-10-31T10:15:36;101858.28;;;15.39;79.53
74329;BME280;62749;51.982;5.916;2022-10-31T10:18:27;101858.66;;;15.50;79.42
74329;BME280;62749;51.982;5.916;2022-10-31T10:21:16;101846.72;;;15.59;79.30
74329;BME280;62749;51.982;5.916;2022-10-31T10:24:01;101813.09;;;15.56;80.31
74329;BME280;62749;51.982;5.916;2022-10-31T10:26:37;101808.84;;;15.52;80.52
74329;BME280;62749;51.982;5.916;2022-10-31T10:29:29;101821.16;;;15.55;80.96
74329;BME280;62749;51.982;5.916;2022-10-31T10:32:05;101822.16;;;15.52;80.60
74329;BME280;62749;51.982;5.916;2022-10-31T10:34:44;101826.41;;;15.56;80.55
74329;BME280;62749;51.982;5.916;2022-10-31T10:37:24;101824.75;;;15.54;80.55
74329;BME280;62749;51.982;5.916;2022-10-31T10:40:06;101831.59;;;15.59;80.65
74329;BME280;62749;51.982;5.916;2022-10-31T10:42:36;101824.41;;;15.61;80.29
74329;BME280;62749;51.982;5.916;2022-10-31T10:45:19;101822.31;;;15.68;80.37
74329;BME280;62749;51.982;5.916;2022-10-31T10:48:08;101826.63;;;15.71;77.64
74329;BME280;62749;51.982;5.916;2022-10-31T10:50:46;101814.03;;;15.74;76.97
74329;BME280;62749;51.982;5.916;2022-10-31T10:53:35;101803.16;;;15.79;75.51
74329;BME280;62749;51.982;5.916;2022-10-31T10:56:36;101793.28;;;15.81;74.87
74329;BME280;62749;51.982;5.916;2022-10-31T10:59:39;101778.44;;;15.94;75.00
74329;BME280;62749;51.982;5.916;2022-10-31T11:02:18;101765.94;;;16.14;75.68
74329;BME280;62749;51.982;5.916;2022-10-31T11:04:51;101767.06;;;16.28;76.20
74329;BME280;62749;51.982;5.916;2022-10-31T11:07:21;101761.25;;;16.37;75.71
74329;BME280;62749;51.982;5.916;2022-10-31T11:10:11;101766.28;;;16.43;75.73
74329;BME280;62749;51.982;5.916;2022-10-31T11:13:00;101759.22;;;16.42;75.30
74329;BME280;62749;51.982;5.916;2022-10-31T11:15:35;101753.00;;;16.41;75.69
74329;BME280;62749;51.982;5.916;2022-10-31T11:18:19;101749.56;;;16.39;75.32
74329;BME280;62749;51.982;5.916;2022-10-31T11:20:52;101741.03;;;16.33;75.66
74329;BME280;62749;51.982;5.916;2022-10-31T11:23:24;101731.13;;;16.35;75.79
74329;BME280;62749;51.982;5.916;2022-10-31T11:25:56;101721.19;;;16.38;75.47
74329;BME280;62749;51.982;5.916;2022-10-31T11:28:30;101721.88;;;16.42;75.97
74329;BME280;62749;51.982;5.916;2022-10-31T11:31:07;101715.28;;;16.49;75.66
74329;BME280;62749;51.982;5.916;2022-10-31T11:33:39;101708.94;;;16.52;75.47
74329;BME280;62749;51.982;5.916;2022-10-31T11:36:18;101711.81;;;16.47;75.74
74329;BME280;62749;51.982;5.916;2022-10-31T11:38:50;101706.69;;;16.44;76.09
74329;BME280;62749;51.982;5.916;2022-10-31T11:41:27;101690.50;;;16.47;76.24
74329;BME280;62749;51.982;5.916;2022-10-31T11:44:03;101677.63;;;16.55;75.17
74329;BME280;62749;51.982;5.916;2022-10-31T11:46:36;101685.09;;;16.49;75.24
74329;BME280;62749;51.982;5.916;2022-10-31T11:49:15;101685.78;;;16.52;75.63
74329;BME280;62749;51.982;5.916;2022-10-31T11:51:50;101673.72;;;16.45;75.79
74329;BME280;62749;51.982;5.916;2022-10-31T11:54:24;101680.44;;;16.52;75.85
74329;BME280;62749;51.982;5.916;2022-10-31T11:56:55;101674.88;;;16.57;76.00
74329;BME280;62749;51.982;5.916;2022-10-31T11:59:30;101679.78;;;16.65;75.88
74329;BME280;62749;51.982;5.916;2022-10-31T12:02:01;101678.59;;;16.70;75.63
74329;BME280;62749;51.982;5.916;2022-10-31T12:04:40;101675.63;;;16.77;75.67
74329;BME280;62749;51.982;5.916;2022-10-31T12:07:25;101662.97;;;16.80;75.95
74329;BME280;62749;51.982;5.916;2022-10-31T12:09:54;101650.72;;;16.76;76.02
74329;BME280;62749;51.982;5.916;2022-10-31T12:12:56;101643.50;;;16.78;76.34
74329;BME280;62749;51.982;5.916;2022-10-31T12:15:36;101641.00;;;16.75;76.40
74329;BME280;62749;51.982;5.916;2022-10-31T12:18:28;101636.19;;;16.82;76.37
74329;BME280;62749;51.982;5.916;2022-10-31T12:21:15;101628.19;;;16.82;76.17
74329;BME280;62749;51.982;5.916;2022-10-31T12:24:00;101618.03;;;16.88;75.84
74329;BME280;62749;51.982;5.916;2022-10-31T12:26:38;101610.66;;;16.94;75.63
74329;BME280;62749;51.982;5.916;2022-10-31T12:29:27;101602.97;;;16.87;75.53
74329;BME280;62749;51.982;5.916;2022-10-31T12:32:15;101606.41;;;16.90;75.71
74329;BME280;62749;51.982;5.916;2022-10-31T12:35:01;101605.75;;;17.02;75.62
74329;BME280;62749;51.982;5.916;2022-10-31T12:37:48;101599.31;;;17.06;75.32
74329;BME280;62749;51.982;5.916;2022-10-31T12:40:45;101583.88;;;17.11;74.92
74329;BME280;62749;51.982;5.916;2022-10-31T12:43:40;101573.97;;;17.13;74.57
74329;BME280;62749;51.982;5.916;2022-10-31T12:46:24;101560.38;;;17.02;75.19
74329;BME280;62749;51.982;5.916;2022-10-31T12:49:15;101560.81;;;17.10;75.37
74329;BME280;62749;51.982;5.916;2022-10-31T12:51:58;101551.59;;;17.16;74.85
74329;BME280;62749;51.982;5.916;2022-10-31T12:54:51;101542.72;;;17.15;74.83
74329;BME280;62749;51.982;5.916;2022-10-31T12:57:27;101532.09;;;17.30;74.92
74329;BME280;62749;51.982;5.916;2022-10-31T13:00:04;101535.66;;;17.45;75.02
74329;BME280;62749;51.982;5.916;2022-10-31T13:02:42;101530.75;;;17.37;74.87
74329;BME280;62749;51.982;5.916;2022-10-31T13:08:29;101508.94;;;17.45;74.50
74329;BME280;62749;51.982;5.916;2022-10-31T13:11:07;101507.75;;;17.65;74.12
74329;BME280;62749;51.982;5.916;2022-10-31T13:13:53;101497.84;;;17.82;72.95
74329;BME280;62749;51.982;5.916;2022-10-31T13:16:29;101487.63;;;17.88;73.43
74329;BME280;62749;51.982;5.916;2022-10-31T13:19:05;101479.94;;;17.98;72.57
74329;BME280;62749;51.982;5.916;2022-10-31T13:21:44;101481.84;;;18.11;73.07
74329;BME280;62749;51.982;5.916;2022-10-31T13:24:30;101471.03;;;18.12;71.75
74329;BME280;62749;51.982;5.916;2022-10-31T13:27:10;101471.81;;;18.00;72.07
74329;BME280;62749;51.982;5.916;2022-10-31T13:29:53;101463.41;;;17.77;72.87
74329;BME280;62749;51.982;5.916;2022-10-31T13:32:30;101463.97;;;17.82;73.48
74329;BME280;62749;51.982;5.916;2022-10-31T13:35:14;101460.44;;;17.82;72.73
74329;BME280;62749;51.982;5.916;2022-10-31T13:37:56;101454.31;;;17.79;72.99
74329;BME280;62749;51.982;5.916;2022-10-31T13:40:44;101439.44;;;17.75;72.42
74329;BME280;62749;51.982;5.916;2022-10-31T13:43:25;101432.00;;;17.66;72.00